Terminal Aerodrome Forecast
Issued by NWS Wilmington, NC

Home | Current Version | Previous Version | Text Only | Print | Product List | Glossary On
Versions: 1 2 3 4 5 6 7 8 9 10 11 12 13 14 15 16 17 18 19 20 21 22 23 24 25 26 27 28
000
FTUS42 KILM 241721
TAFLBT
TAF
KLBT 241721Z 2418/2518 19010G19KT P6SM VCTS OVC030CB
      TEMPO 2421/2501 VRB20G45KT 2SM +TSRA OVC010CB
     FM250500 21009KT P6SM BKN015
     FM251300 23012G21KT P6SM BKN250
     FM251500 24013G22KT P6SM SCT050 PROB30 2516/2518 2SM TSRA
      BKN050CB=

USA.gov is the U.S. government's official web portal to all federal, state and local government web resources and services.